createdAt,value
2018-01-24T00:00:33.026Z,12.82
2018-01-24T00:01:07.147Z,12.50
2018-01-24T00:01:42.044Z,14.73
2018-01-24T00:02:16.101Z,13.27
2018-01-24T00:02:49.988Z,13.23
2018-01-24T00:03:25.099Z,13.55
2018-01-24T00:04:00.009Z,14.35
2018-01-24T00:04:34.921Z,13.57
2018-01-24T00:05:08.829Z,13.50
2018-01-24T00:05:42.903Z,13.13
2018-01-24T00:06:18.764Z,13.80
2018-01-24T00:06:52.623Z,14.50
2018-01-24T00:07:27.572Z,14.52
2018-01-24T00:08:02.260Z,12.55
2018-01-24T00:08:36.122Z,14.32
2018-01-24T00:09:11.047Z,13.73
2018-01-24T00:09:44.915Z,12.90
2018-01-24T00:10:18.775Z,14.02
2018-01-24T00:10:53.137Z,14.43
2018-01-24T00:11:27.047Z,13.88
2018-01-24T00:12:00.906Z,14.32
2018-01-24T00:12:35.127Z,15.23
2018-01-24T00:13:09.023Z,15.02
2018-01-24T00:13:42.973Z,14.27
2018-01-24T00:14:17.066Z,13.65
2018-01-24T00:14:50.922Z,13.57
2018-01-24T00:15:25.308Z,14.40
2018-01-24T00:15:59.629Z,14.00
2018-01-24T00:16:33.549Z,13.68
2018-01-24T00:17:08.796Z,14.70
2018-01-24T00:17:42.725Z,13.52
2018-01-24T00:18:16.616Z,14.70
2018-01-24T00:18:50.843Z,14.30
2018-01-24T00:19:25.017Z,13.13
2018-01-24T00:19:58.880Z,14.50
2018-01-24T00:20:33.595Z,13.88
2018-01-24T00:21:07.671Z,14.68
2018-01-24T00:21:41.611Z,14.43
2018-01-24T00:22:15.890Z,15.07
2018-01-24T00:22:49.764Z,14.60
2018-01-24T00:23:23.615Z,14.57
2018-01-24T00:23:57.777Z,14.38
2018-01-24T00:24:31.934Z,14.23
2018-01-24T00:25:06.774Z,13.68
2018-01-24T00:25:40.666Z,15.25
2018-01-24T00:26:14.649Z,14.95
2018-01-24T00:26:49.136Z,16.35
2018-01-24T00:27:23.004Z,14.10
2018-01-24T00:27:57.371Z,14.77
2018-01-24T00:28:31.301Z,15.00
2018-01-24T00:29:05.219Z,14.63
2018-01-24T00:29:39.666Z,15.25
2018-01-24T00:30:13.715Z,15.38
2018-01-24T00:30:47.561Z,14.18
2018-01-24T00:31:22.270Z,15.15
2018-01-24T00:31:56.129Z,15.10
2018-01-24T00:32:30.000Z,15.18
2018-01-24T00:33:04.015Z,15.15
2018-01-24T00:33:37.914Z,16.20
2018-01-24T00:34:12.160Z,16.02
2018-01-24T00:34:46.141Z,15.70
2018-01-24T00:35:20.004Z,15.65
2018-01-24T00:35:54.896Z,16.48
2018-01-24T00:36:28.726Z,16.05
2018-01-24T00:37:02.614Z,15.52
2018-01-24T00:37:36.576Z,14.90
2018-01-24T00:38:10.478Z,16.20
2018-01-24T00:38:44.529Z,15.70
2018-01-24T00:39:18.392Z,15.98
2018-01-24T00:39:52.374Z,17.42
2018-01-24T00:40:27.832Z,16.52
2018-01-24T00:41:01.721Z,16.77
2018-01-24T00:41:35.608Z,16.58
2018-01-24T00:42:09.485Z,16.75
2018-01-24T00:42:43.616Z,15.82
2018-01-24T00:43:17.845Z,16.58
2018-01-24T00:43:53.013Z,15.88
2018-01-24T00:44:26.929Z,16.98
2018-01-24T00:45:02.501Z,16.20
2018-01-24T00:45:36.464Z,16.37
2018-01-24T00:46:10.434Z,17.80
2018-01-24T00:46:45.204Z,16.92
2018-01-24T00:47:19.131Z,16.85
2018-01-24T00:47:55.030Z,15.90
2018-01-24T00:48:29.025Z,16.90
2018-01-24T00:49:02.892Z,15.90
2018-01-24T00:49:37.199Z,15.00
2018-01-24T00:50:11.055Z,15.73
2018-01-24T00:50:45.005Z,16.12
2018-01-24T00:51:19.020Z,16.23
2018-01-24T00:51:52.871Z,16.65
2018-01-24T00:52:27.144Z,16.10
2018-01-24T00:53:01.562Z,15.70
2018-01-24T00:53:35.580Z,18.33
2018-01-24T00:54:10.609Z,16.05
2018-01-24T00:54:44.588Z,16.58
2018-01-24T00:55:18.547Z,16.62
2018-01-24T00:55:52.914Z,16.08
2018-01-24T00:56:26.931Z,15.98
2018-01-24T00:57:00.922Z,17.05
2018-01-24T00:57:35.171Z,17.10
2018-01-24T00:58:09.110Z,16.00
2018-01-24T00:58:43.153Z,17.70
2018-01-24T00:59:16.999Z,15.75
2018-01-24T00:59:50.937Z,17.20
2018-01-24T01:00:24.884Z,18.08
2018-01-24T01:00:58.828Z,17.00
2018-01-24T01:01:32.816Z,16.37
2018-01-24T01:02:06.731Z,16.45
2018-01-24T01:02:40.607Z,17.23
2018-01-24T01:03:14.567Z,17.30
2018-01-24T01:03:48.436Z,16.00
2018-01-24T01:04:22.612Z,16.33
2018-01-24T01:04:56.502Z,17.12
2018-01-24T01:05:30.463Z,17.15
2018-01-24T01:06:04.598Z,17.70
2018-01-24T01:06:38.646Z,16.67
2018-01-24T01:07:12.691Z,17.20
2018-01-24T01:07:46.593Z,16.83
2018-01-24T01:08:20.549Z,17.48
2018-01-24T01:08:54.587Z,17.05
2018-01-24T01:09:28.553Z,16.75
2018-01-24T01:10:02.628Z,16.70
2018-01-24T01:10:36.515Z,16.65
2018-01-24T01:11:10.364Z,15.48
2018-01-24T01:11:44.377Z,17.20
2018-01-24T01:12:18.466Z,16.27
2018-01-24T01:12:52.447Z,16.15
2018-01-24T01:13:26.332Z,18.37
2018-01-24T01:14:00.253Z,16.83
2018-01-24T01:14:34.232Z,16.67
2018-01-24T01:15:08.339Z,16.50
2018-01-24T01:15:42.296Z,16.12
2018-01-24T01:16:16.244Z,15.02
2018-01-24T01:16:50.260Z,14.77
2018-01-24T01:17:24.109Z,16.65
2018-01-24T01:17:57.965Z,15.60
2018-01-24T01:18:31.968Z,15.75
2018-01-24T01:19:05.840Z,14.77
2018-01-24T01:19:40.044Z,15.07
2018-01-24T01:20:13.998Z,15.65
2018-01-24T01:20:47.989Z,15.57
2018-01-24T01:21:21.849Z,16.58
2018-01-24T01:21:55.901Z,16.12
2018-01-24T01:22:30.166Z,15.45
2018-01-24T01:23:04.871Z,14.95
2018-01-24T01:23:38.846Z,15.25
2018-01-24T01:24:12.709Z,14.57
2018-01-24T01:24:46.561Z,15.63
2018-01-24T01:25:20.469Z,14.15
2018-01-24T01:25:54.319Z,14.87
2018-01-24T01:26:28.385Z,13.65
2018-01-24T01:27:02.461Z,15.25
2018-01-24T01:27:36.403Z,15.27
2018-01-24T01:28:10.389Z,14.65
2018-01-24T01:28:44.273Z,14.68
2018-01-24T01:29:18.212Z,15.20
2018-01-24T01:29:52.076Z,14.63
2018-01-24T01:30:25.991Z,16.65
2018-01-24T01:30:59.979Z,13.40
2018-01-24T01:31:33.873Z,14.18
2018-01-24T01:32:07.752Z,14.70
2018-01-24T01:32:41.699Z,15.13
2018-01-24T01:33:15.612Z,14.10
2018-01-24T01:33:49.674Z,13.62
2018-01-24T01:34:23.724Z,13.30
2018-01-24T01:34:57.609Z,13.68
2018-01-24T01:35:31.704Z,14.52
2018-01-24T01:36:05.736Z,13.80
2018-01-24T01:36:39.789Z,14.48
2018-01-24T01:37:13.690Z,14.07
2018-01-24T01:37:47.686Z,14.15
2018-01-24T01:38:21.541Z,12.70
2018-01-24T01:38:55.574Z,12.82
2018-01-24T01:39:29.583Z,15.18
2018-01-24T01:40:03.501Z,13.55
2018-01-24T01:40:37.341Z,13.45
2018-01-24T01:41:11.612Z,13.00
2018-01-24T01:41:45.499Z,14.25
2018-01-24T01:42:19.445Z,14.25
2018-01-24T01:42:53.404Z,12.88
2018-01-24T01:43:27.494Z,13.65
2018-01-24T01:44:01.504Z,13.07
2018-01-24T01:44:35.424Z,13.43
2018-01-24T01:45:09.285Z,12.70
2018-01-24T01:45:43.222Z,12.55
2018-01-24T01:46:17.121Z,13.20
2018-01-24T01:46:51.001Z,13.23
2018-01-24T01:47:24.901Z,13.60
2018-01-24T01:47:58.764Z,12.48
2018-01-24T01:48:32.692Z,14.50
2018-01-24T01:49:06.664Z,13.73
2018-01-24T01:49:40.611Z,12.95
2018-01-24T01:50:14.508Z,13.40
2018-01-24T01:50:48.485Z,12.57
2018-01-24T01:51:22.344Z,13.07
2018-01-24T01:51:56.288Z,13.35
2018-01-24T01:52:30.198Z,12.60
2018-01-24T01:53:04.065Z,12.73
2018-01-24T01:53:37.943Z,12.65
2018-01-24T01:54:11.885Z,11.95
2018-01-24T01:54:45.853Z,14.05
2018-01-24T01:55:19.848Z,11.30
2018-01-24T01:55:53.745Z,12.25
2018-01-24T01:56:27.690Z,13.50
2018-01-24T01:57:01.746Z,12.13
2018-01-24T01:57:35.684Z,13.40
2018-01-24T01:58:09.593Z,11.85
2018-01-24T01:58:43.462Z,11.75
2018-01-24T01:59:17.409Z,11.65
2018-01-24T01:59:51.310Z,13.13
2018-01-24T02:00:25.161Z,12.73
2018-01-24T02:00:59.012Z,11.43
2018-01-24T02:01:32.921Z,13.10
2018-01-24T02:02:06.804Z,12.00
2018-01-24T02:02:40.683Z,11.93
2018-01-24T02:03:14.571Z,12.13
2018-01-24T02:03:48.533Z,11.95
2018-01-24T02:04:22.528Z,11.77
2018-01-24T02:04:56.526Z,11.43
2018-01-24T02:05:30.572Z,10.93
2018-01-24T02:06:04.517Z,12.98
2018-01-24T02:06:38.402Z,12.82
2018-01-24T02:07:12.452Z,11.57
2018-01-24T02:07:46.304Z,11.65
2018-01-24T02:08:20.208Z,11.80
2018-01-24T02:08:54.242Z,11.27
2018-01-24T02:09:28.136Z,11.65
2018-01-24T02:10:02.070Z,11.00
2018-01-24T02:10:35.968Z,11.12
2018-01-24T02:11:09.886Z,10.48
2018-01-24T02:11:43.803Z,11.25
2018-01-24T02:12:17.705Z,10.88
2018-01-24T02:12:51.572Z,10.85
2018-01-24T02:13:25.515Z,11.85
2018-01-24T02:13:59.441Z,12.30
2018-01-24T02:14:33.355Z,11.32
2018-01-24T02:15:07.273Z,12.30
2018-01-24T02:15:41.301Z,10.57
2018-01-24T02:16:15.293Z,10.30
2018-01-24T02:16:49.293Z,10.90
2018-01-24T02:17:23.208Z,10.45
2018-01-24T02:17:57.117Z,11.15
2018-01-24T02:18:31.285Z,10.85
2018-01-24T02:19:05.469Z,10.30
2018-01-24T02:19:39.384Z,10.40
2018-01-24T02:20:13.274Z,10.23
2018-01-24T02:20:47.260Z,10.52
2018-01-24T02:21:21.180Z,10.77
2018-01-24T02:21:55.064Z,11.32
2018-01-24T02:22:29.053Z,11.12
2018-01-24T02:23:03.044Z,11.20
2018-01-24T02:23:36.944Z,11.43
2018-01-24T02:24:10.822Z,11.30
2018-01-24T02:24:44.726Z,10.32
2018-01-24T02:25:18.642Z,10.93
2018-01-24T02:25:52.637Z,10.95
2018-01-24T02:26:26.479Z,11.40
2018-01-24T02:27:00.353Z,10.35
2018-01-24T02:27:34.372Z,11.20
2018-01-24T02:28:08.305Z,11.38
2018-01-24T02:28:42.235Z,10.48
2018-01-24T02:29:16.259Z,12.60
2018-01-24T02:29:50.177Z,11.65
2018-01-24T02:30:24.029Z,10.15
2018-01-24T02:30:58.282Z,11.15
2018-01-24T02:31:32.161Z,10.38
2018-01-24T02:32:06.101Z,10.10
2018-01-24T02:32:40.001Z,10.98
2018-01-24T02:33:13.881Z,11.35
2018-01-24T02:33:47.749Z,11.25
2018-01-24T02:34:21.905Z,9.88
2018-01-24T02:34:55.874Z,10.63
2018-01-24T02:35:29.741Z,10.93
2018-01-24T02:36:03.648Z,9.55
2018-01-24T02:36:37.521Z,10.32
2018-01-24T02:37:11.430Z,9.27
2018-01-24T02:37:45.342Z,11.15
2018-01-24T02:38:24.955Z,11.27
2018-01-24T02:39:04.784Z,10.77
2018-01-24T02:39:38.741Z,9.25
2018-01-24T02:40:12.615Z,9.90
2018-01-24T02:40:47.348Z,9.80
2018-01-24T02:41:21.225Z,10.57
2018-01-24T02:41:55.147Z,9.38
2018-01-24T02:42:29.179Z,11.88
2018-01-24T02:43:03.134Z,10.73
2018-01-24T02:43:37.055Z,9.93
2018-01-24T02:44:10.974Z,10.52
2018-01-24T02:44:44.879Z,9.40
2018-01-24T02:45:18.751Z,10.70
2018-01-24T02:45:52.643Z,10.60
2018-01-24T02:46:26.581Z,11.23
2018-01-24T02:47:00.529Z,10.77
2018-01-24T02:47:34.428Z,10.75
2018-01-24T02:48:08.285Z,9.32
2018-01-24T02:48:42.998Z,10.27
2018-01-24T02:49:16.944Z,11.10
2018-01-24T02:49:50.820Z,9.88
2018-01-24T02:50:24.726Z,10.63
2018-01-24T02:50:58.637Z,9.88
2018-01-24T02:51:32.572Z,10.30
2018-01-24T02:52:06.724Z,9.75
2018-01-24T02:52:40.705Z,9.10
2018-01-24T02:53:14.711Z,9.30
2018-01-24T02:53:48.654Z,9.77
2018-01-24T02:54:22.659Z,9.60
2018-01-24T02:54:56.765Z,10.73
2018-01-24T02:55:30.690Z,9.60
2018-01-24T02:56:04.596Z,9.60
2018-01-24T02:56:38.564Z,8.45
2018-01-24T02:57:12.609Z,9.10
2018-01-24T02:57:46.797Z,9.70
2018-01-24T02:58:20.652Z,8.85
2018-01-24T02:58:54.547Z,9.60
2018-01-24T02:59:28.596Z,9.20
2018-01-24T03:00:02.487Z,9.30
2018-01-24T03:00:36.420Z,8.98
2018-01-24T03:01:10.315Z,9.23
2018-01-24T03:01:44.300Z,8.90
2018-01-24T03:02:18.226Z,9.77
2018-01-24T03:02:52.318Z,10.02
2018-01-24T03:03:26.217Z,9.40
2018-01-24T03:04:00.216Z,8.25
2018-01-24T03:04:34.128Z,8.82
2018-01-24T03:05:08.052Z,8.88
2018-01-24T03:05:42.209Z,9.10
2018-01-24T03:06:16.244Z,8.80
2018-01-24T03:06:50.277Z,9.43
2018-01-24T03:07:24.131Z,8.90
2018-01-24T03:07:58.015Z,8.95
2018-01-24T03:08:31.930Z,9.02
2018-01-24T03:09:05.805Z,9.68
2018-01-24T03:09:39.770Z,9.23
2018-01-24T03:10:13.725Z,9.18
2018-01-24T03:10:47.693Z,9.07
2018-01-24T03:11:21.708Z,9.40
2018-01-24T03:11:55.638Z,9.18
2018-01-24T03:12:29.496Z,8.82
2018-01-24T03:13:03.411Z,8.85
2018-01-24T03:13:37.376Z,9.20
2018-01-24T03:14:11.285Z,9.10
2018-01-24T03:14:45.406Z,9.75
2018-01-24T03:15:19.435Z,9.27
2018-01-24T03:15:53.432Z,8.02
2018-01-24T03:16:27.455Z,8.23
2018-01-24T03:17:01.353Z,8.63
2018-01-24T03:17:35.309Z,9.05
2018-01-24T03:18:09.216Z,9.43
2018-01-24T03:18:43.105Z,9.00
2018-01-24T03:19:17.098Z,10.13
2018-01-24T03:19:51.021Z,8.05
2018-01-24T03:20:25.070Z,8.90
2018-01-24T03:20:58.977Z,8.38
2018-01-24T03:21:32.872Z,8.75
2018-01-24T03:22:06.893Z,8.38
2018-01-24T03:22:40.785Z,8.10
2018-01-24T03:23:14.639Z,9.18
2018-01-24T03:23:48.568Z,8.68
2018-01-24T03:24:22.535Z,8.60
2018-01-24T03:24:56.617Z,9.38
2018-01-24T03:25:30.492Z,8.82
2018-01-24T03:26:04.444Z,9.10
2018-01-24T03:26:38.549Z,9.20
2018-01-24T03:27:12.482Z,8.90
2018-01-24T03:27:46.369Z,8.00
2018-01-24T03:28:20.341Z,7.95
2018-01-24T03:28:54.475Z,7.90
2018-01-24T03:29:28.405Z,8.32
2018-01-24T03:30:02.264Z,8.10
2018-01-24T03:30:36.222Z,7.95
2018-01-24T03:31:10.253Z,7.95
2018-01-24T03:31:44.296Z,8.35
2018-01-24T03:32:18.317Z,8.23
2018-01-24T03:32:52.304Z,7.78
2018-01-24T03:33:26.245Z,8.40
2018-01-24T03:34:00.201Z,7.80
2018-01-24T03:34:34.046Z,7.72
2018-01-24T03:35:08.046Z,7.90
2018-01-24T03:35:42.025Z,8.15
2018-01-24T03:36:16.126Z,8.00
2018-01-24T03:36:49.980Z,7.55
2018-01-24T03:37:23.867Z,7.97
2018-01-24T03:37:57.804Z,7.85
2018-01-24T03:38:31.703Z,7.43
2018-01-24T03:39:06.006Z,7.57
2018-01-24T03:39:39.909Z,7.50
2018-01-24T03:40:13.998Z,6.90
2018-01-24T03:40:48.227Z,7.45
2018-01-24T03:41:22.157Z,7.22
2018-01-24T03:41:56.223Z,6.70
2018-01-24T03:42:30.137Z,7.65
2018-01-24T03:43:04.143Z,7.50
2018-01-24T03:43:38.292Z,7.72
2018-01-24T03:44:12.293Z,7.37
2018-01-24T03:44:46.268Z,7.70
2018-01-24T03:45:20.145Z,7.55
2018-01-24T03:45:54.036Z,6.72
2018-01-24T03:46:28.071Z,7.37
2018-01-24T03:47:01.941Z,7.65
2018-01-24T03:47:35.821Z,7.22
2018-01-24T03:48:09.752Z,7.37
2018-01-24T03:48:43.805Z,7.95
2018-01-24T03:49:17.920Z,7.03
2018-01-24T03:49:51.843Z,6.80
2018-01-24T03:50:25.742Z,7.00
2018-01-24T03:50:59.733Z,6.22
2018-01-24T03:51:33.771Z,6.47
2018-01-24T03:52:07.641Z,6.87
2018-01-24T03:52:41.580Z,7.05
2018-01-24T03:53:15.477Z,6.90
2018-01-24T03:53:49.380Z,7.20
2018-01-24T03:54:23.365Z,6.68
2018-01-24T03:54:57.214Z,7.45
2018-01-24T03:55:31.205Z,6.70
2018-01-24T03:56:05.108Z,8.20
2018-01-24T03:56:39.027Z,7.70
2018-01-24T03:57:13.098Z,7.10
2018-01-24T03:57:46.959Z,7.03
2018-01-24T03:58:20.993Z,6.22
2018-01-24T03:58:55.081Z,6.95
2018-01-24T03:59:29.030Z,7.53
2018-01-24T04:00:02.912Z,6.10
2018-01-24T04:00:36.861Z,6.18
2018-01-24T04:01:10.708Z,6.60
2018-01-24T04:01:44.658Z,7.65
2018-01-24T04:02:18.628Z,6.85
2018-01-24T04:02:52.556Z,7.43
2018-01-24T04:03:26.558Z,7.25
2018-01-24T04:04:00.449Z,6.80
2018-01-24T04:04:34.448Z,7.47
2018-01-24T04:05:08.538Z,6.65
2018-01-24T04:05:42.530Z,6.53
2018-01-24T04:06:16.388Z,6.15
2018-01-24T04:06:50.284Z,6.82
2018-01-24T04:07:24.191Z,6.90
2018-01-24T04:07:58.126Z,6.43
2018-01-24T04:08:32.003Z,7.05
2018-01-24T04:09:05.999Z,7.25
2018-01-24T04:09:40.002Z,6.75
2018-01-24T04:10:13.904Z,5.70
2018-01-24T04:10:47.763Z,6.28
2018-01-24T04:11:21.759Z,6.70
2018-01-24T04:11:55.698Z,6.40
2018-01-24T04:12:29.800Z,6.07
2018-01-24T04:13:03.692Z,5.93
2018-01-24T04:13:37.684Z,6.65
2018-01-24T04:14:11.587Z,6.10
2018-01-24T04:14:45.657Z,6.40
2018-01-24T04:15:19.561Z,7.78
2018-01-24T04:15:53.726Z,6.30
2018-01-24T04:16:27.729Z,6.50
2018-01-24T04:17:01.618Z,6.82
2018-01-24T04:17:35.547Z,6.87
2018-01-24T04:18:09.464Z,6.93
2018-01-24T04:18:43.361Z,6.28
2018-01-24T04:19:17.252Z,6.47
2018-01-24T04:19:51.160Z,6.85
2018-01-24T04:20:25.108Z,6.22
2018-01-24T04:20:59.039Z,7.20
2018-01-24T04:21:33.021Z,6.50
2018-01-24T04:22:07.087Z,6.82
2018-01-24T04:22:41.033Z,6.78
2018-01-24T04:23:14.926Z,6.37
2018-01-24T04:23:48.979Z,6.50
2018-01-24T04:24:22.896Z,6.80
2018-01-24T04:24:56.815Z,6.85
2018-01-24T04:25:30.740Z,6.10
2018-01-24T04:26:04.888Z,6.32
2018-01-24T04:26:38.794Z,6.78
2018-01-24T04:27:12.683Z,6.57
2018-01-24T04:27:46.536Z,6.03
2018-01-24T04:28:20.479Z,6.25
2018-01-24T04:28:54.385Z,6.75
2018-01-24T04:29:28.277Z,5.75
2018-01-24T04:30:03.132Z,6.60
2018-01-24T04:30:37.073Z,6.68
2018-01-24T04:31:11.064Z,6.12
2018-01-24T04:31:45.197Z,6.05
2018-01-24T04:32:19.094Z,6.30
2018-01-24T04:32:53.143Z,6.00
2018-01-24T04:33:27.458Z,5.95
2018-01-24T04:34:01.565Z,6.97
2018-01-24T04:34:35.446Z,6.28
2018-01-24T04:35:09.455Z,6.55
2018-01-24T04:35:43.450Z,6.10
2018-01-24T04:36:17.377Z,6.00
2018-01-24T04:36:51.260Z,6.15
2018-01-24T04:37:25.176Z,6.32
2018-01-24T04:37:59.218Z,6.20
2018-01-24T04:38:33.077Z,6.47
2018-01-24T04:39:06.928Z,7.10
2018-01-24T04:39:40.775Z,6.93
2018-01-24T04:40:14.785Z,6.80
2018-01-24T04:40:48.689Z,6.55
2018-01-24T04:41:22.605Z,6.37
2018-01-24T04:41:56.512Z,6.15
2018-01-24T04:42:30.451Z,6.90
2018-01-24T04:43:04.319Z,6.40
2018-01-24T04:43:38.491Z,5.80
2018-01-24T04:44:12.598Z,6.35
2018-01-24T04:44:46.596Z,6.30
2018-01-24T04:45:20.476Z,6.72
2018-01-24T04:45:54.491Z,6.43
2018-01-24T04:46:28.594Z,6.28
2018-01-24T04:47:02.471Z,6.68
2018-01-24T04:47:36.519Z,5.97
2018-01-24T04:48:10.371Z,6.45
2018-01-24T04:48:44.250Z,5.50
2018-01-24T04:49:18.097Z,7.12
2018-01-24T04:49:51.945Z,6.10
2018-01-24T04:50:25.801Z,6.12
2018-01-24T04:50:59.721Z,6.70
2018-01-24T04:51:33.585Z,6.70
2018-01-24T04:52:07.440Z,6.43
2018-01-24T04:52:41.351Z,6.82
2018-01-24T04:53:15.211Z,7.37
2018-01-24T04:53:49.089Z,6.50
2018-01-24T04:54:23.100Z,6.35
2018-01-24T04:54:57.025Z,7.50
2018-01-24T04:55:31.036Z,5.57
2018-01-24T04:56:04.906Z,7.05
2018-01-24T04:56:39.126Z,6.60
2018-01-24T04:57:23.756Z,6.25
2018-01-24T04:57:57.635Z,7.30
2018-01-24T04:58:31.510Z,6.18
2018-01-24T04:59:05.373Z,7.65
2018-01-24T04:59:39.434Z,6.03
2018-01-24T05:00:13.557Z,7.00
2018-01-24T05:00:47.620Z,6.80
2018-01-24T05:01:21.596Z,6.95
2018-01-24T05:01:55.526Z,7.15
2018-01-24T05:02:29.385Z,6.95
2018-01-24T05:03:03.294Z,7.18
2018-01-24T05:03:37.151Z,7.72
2018-01-24T05:04:11.106Z,7.70
2018-01-24T05:04:44.985Z,7.12
2018-01-24T05:05:18.956Z,6.65
2018-01-24T05:05:52.913Z,6.32
2018-01-24T05:06:27.175Z,6.62
2018-01-24T05:07:01.029Z,6.80
2018-01-24T05:07:34.904Z,7.25
2018-01-24T05:08:08.787Z,6.55
2018-01-24T05:08:42.652Z,7.18
2018-01-24T05:09:16.541Z,7.40
2018-01-24T05:09:50.424Z,7.30
2018-01-24T05:10:24.382Z,6.70
2018-01-24T05:10:58.276Z,7.72
2018-01-24T05:11:32.157Z,7.30
2018-01-24T05:12:05.996Z,7.65
2018-01-24T05:12:39.897Z,6.53
2018-01-24T05:13:13.775Z,7.20
2018-01-24T05:13:47.680Z,7.05
2018-01-24T05:14:21.560Z,7.43
2018-01-24T05:14:55.418Z,7.47
2018-01-24T05:15:29.304Z,8.52
2018-01-24T05:16:03.232Z,6.65
2018-01-24T05:16:37.176Z,6.80
2018-01-24T05:17:11.313Z,7.37
2018-01-24T05:17:45.147Z,7.70
2018-01-24T05:18:19.055Z,7.80
2018-01-24T05:18:52.964Z,6.97
2018-01-24T05:19:27.000Z,7.12
2018-01-24T05:20:00.887Z,7.30
2018-01-24T05:20:49.629Z,7.55
2018-01-24T05:21:23.492Z,7.32
2018-01-24T05:21:57.386Z,7.03
2018-01-24T05:22:31.367Z,7.80
2018-01-24T05:23:05.257Z,7.90
2018-01-24T05:23:39.317Z,8.15
2018-01-24T05:24:13.312Z,7.90
2018-01-24T05:24:47.239Z,7.72
2018-01-24T05:25:21.264Z,7.75
2018-01-24T05:25:55.409Z,7.80
2018-01-24T05:26:29.356Z,7.62
2018-01-24T05:27:03.321Z,8.07
2018-01-24T05:27:37.200Z,7.87
2018-01-24T05:28:11.056Z,7.95
2018-01-24T05:28:45.162Z,7.57
2018-01-24T05:29:19.045Z,8.23
2018-01-24T05:29:52.982Z,8.10
2018-01-24T05:30:26.887Z,8.52
2018-01-24T05:31:00.858Z,7.43
2018-01-24T05:31:34.875Z,7.80
2018-01-24T05:32:08.880Z,8.27
2018-01-24T05:32:42.763Z,7.90
2018-01-24T05:33:16.618Z,8.20
2018-01-24T05:33:50.585Z,8.95
2018-01-24T05:34:24.456Z,8.43
2018-01-24T05:34:58.353Z,8.40
2018-01-24T05:35:32.209Z,8.43
2018-01-24T05:36:06.144Z,9.35
2018-01-24T05:36:40.197Z,8.73
2018-01-24T05:37:14.053Z,7.68
2018-01-24T05:37:48.216Z,7.72
2018-01-24T05:38:22.151Z,8.90
2018-01-24T05:38:56.074Z,7.60
2018-01-24T05:39:30.129Z,7.70
2018-01-24T05:40:04.118Z,7.95
2018-01-24T05:40:37.971Z,7.50
2018-01-24T05:41:11.831Z,8.65
2018-01-24T05:41:45.698Z,8.07
2018-01-24T05:42:19.595Z,9.27
2018-01-24T05:42:53.505Z,8.68
2018-01-24T05:43:27.359Z,7.97
2018-01-24T05:44:01.405Z,10.60
2018-01-24T05:44:35.399Z,8.43
2018-01-24T05:45:10.212Z,8.55
2018-01-24T05:45:44.300Z,8.45
2018-01-24T05:46:18.360Z,8.77
2018-01-24T05:46:52.216Z,8.05
2018-01-24T05:47:26.092Z,8.57
2018-01-24T05:47:59.995Z,8.00
2018-01-24T05:48:33.888Z,8.75
2018-01-24T05:49:07.775Z,8.40
2018-01-24T05:49:41.654Z,8.30
2018-01-24T05:50:15.611Z,8.45
2018-01-24T05:50:49.618Z,9.23
2018-01-24T05:51:23.473Z,9.55
2018-01-24T05:51:57.487Z,8.57
2018-01-24T05:52:31.349Z,8.85
2018-01-24T05:53:05.384Z,8.95
2018-01-24T05:53:39.278Z,7.95
2018-01-24T05:54:13.348Z,8.45
2018-01-24T05:54:47.191Z,8.30
2018-01-24T05:55:21.040Z,7.87
2018-01-24T05:55:54.961Z,9.93
2018-01-24T05:56:28.860Z,8.52
2018-01-24T05:57:02.721Z,8.00
2018-01-24T05:57:36.608Z,8.77
2018-01-24T05:58:10.601Z,8.55
2018-01-24T05:58:44.615Z,8.70
2018-01-24T05:59:18.508Z,9.20
2018-01-24T05:59:52.501Z,9.02
2018-01-24T06:00:26.585Z,7.97
2018-01-24T06:01:00.501Z,9.02
2018-01-24T06:01:34.412Z,8.30
2018-01-24T06:02:09.150Z,8.50
2018-01-24T06:02:43.335Z,9.05
2018-01-24T06:03:17.291Z,8.70
2018-01-24T06:03:51.221Z,9.70
2018-01-24T06:04:25.289Z,8.93
2018-01-24T06:04:59.416Z,9.25
2018-01-24T06:05:33.548Z,9.77
2018-01-24T06:06:07.543Z,9.30
2018-01-24T06:06:41.713Z,8.82
2018-01-24T06:07:15.712Z,8.95
2018-01-24T06:07:49.577Z,10.18
2018-01-24T06:08:23.585Z,8.63
2018-01-24T06:08:57.449Z,9.57
2018-01-24T06:09:31.496Z,9.82
2018-01-24T06:10:05.396Z,9.57
2018-01-24T06:10:39.302Z,10.20
2018-01-24T06:11:13.201Z,9.70
2018-01-24T06:11:47.104Z,9.23
2018-01-24T06:12:21.077Z,9.20
2018-01-24T06:12:54.994Z,9.70
2018-01-24T06:13:28.889Z,9.50
2018-01-24T06:14:02.804Z,9.18
2018-01-24T06:14:36.775Z,8.70
2018-01-24T06:15:10.694Z,9.13
2018-01-24T06:15:44.791Z,9.35
2018-01-24T06:16:18.812Z,9.23
2018-01-24T06:16:52.712Z,10.25
2018-01-24T06:17:26.578Z,8.95
2018-01-24T06:18:00.515Z,9.05
2018-01-24T06:18:34.406Z,9.13
2018-01-24T06:19:08.287Z,9.15
2018-01-24T06:19:42.192Z,9.55
2018-01-24T06:20:16.057Z,9.32
2018-01-24T06:20:50.173Z,9.00
2018-01-24T06:21:24.405Z,8.80
2018-01-24T06:21:58.270Z,9.10
2018-01-24T06:22:32.537Z,9.18
2018-01-24T06:23:06.538Z,9.38
2018-01-24T06:23:40.453Z,9.65
2018-01-24T06:24:14.568Z,9.05
2018-01-24T06:24:49.713Z,9.30
2018-01-24T06:26:25.927Z,9.25
2018-01-24T06:26:59.855Z,8.63
2018-01-24T06:27:33.733Z,9.60
2018-01-24T06:28:07.589Z,9.40
2018-01-24T06:28:41.650Z,9.45
2018-01-24T06:29:15.507Z,10.48
2018-01-24T06:29:49.413Z,9.90
2018-01-24T06:30:23.466Z,10.75
2018-01-24T06:30:57.567Z,9.57
2018-01-24T06:31:31.648Z,11.20
2018-01-24T06:32:05.505Z,8.70
2018-01-24T06:32:39.570Z,8.90
2018-01-24T06:33:13.532Z,9.10
2018-01-24T06:33:47.428Z,9.60
2018-01-24T06:34:21.559Z,9.30
2018-01-24T06:34:55.652Z,9.68
2018-01-24T06:35:29.771Z,9.60
2018-01-24T06:36:03.683Z,10.48
2018-01-24T06:36:38.257Z,9.77
2018-01-24T06:37:12.204Z,9.60
2018-01-24T06:37:46.068Z,9.55
2018-01-24T06:38:20.002Z,9.00
2018-01-24T06:38:53.943Z,8.20
2018-01-24T06:39:28.006Z,9.48
2018-01-24T06:40:01.939Z,10.48
2018-01-24T06:40:35.877Z,10.40
2018-01-24T06:41:09.756Z,10.20
2018-01-24T06:41:43.652Z,10.32
2018-01-24T06:42:17.553Z,10.10
2018-01-24T06:42:51.444Z,9.48
2018-01-24T06:43:25.716Z,10.00
2018-01-24T06:43:59.619Z,9.77
2018-01-24T06:44:33.491Z,9.77
2018-01-24T06:45:07.394Z,9.90
2018-01-24T06:45:41.302Z,10.55
2018-01-24T06:46:15.192Z,10.05
2018-01-24T06:46:49.080Z,10.25
2018-01-24T06:47:22.991Z,10.88
2018-01-24T06:47:56.847Z,9.63
2018-01-24T06:48:31.101Z,9.88
2018-01-24T06:49:05.078Z,9.68
2018-01-24T06:49:39.291Z,10.38
2018-01-24T06:50:13.292Z,9.50
2018-01-24T06:50:47.147Z,10.35
2018-01-24T06:51:20.992Z,9.15
2018-01-24T06:51:54.850Z,10.23
2018-01-24T06:52:28.832Z,9.65
2018-01-24T06:53:02.909Z,8.82
2018-01-24T06:53:36.775Z,8.95
2018-01-24T06:54:10.757Z,10.73
2018-01-24T06:54:44.662Z,10.02
2018-01-24T06:55:18.567Z,9.77
2018-01-24T06:55:52.522Z,10.23
2018-01-24T06:56:26.367Z,9.43
2018-01-24T06:57:00.270Z,9.70
2018-01-24T06:57:34.137Z,9.10
2018-01-24T06:58:08.016Z,11.27
2018-01-24T06:58:42.078Z,9.57
2018-01-24T06:59:16.132Z,9.57
2018-01-24T06:59:50.002Z,9.90
2018-01-24T07:00:24.020Z,10.52
2018-01-24T07:00:58.145Z,9.55
2018-01-24T07:01:32.282Z,9.20
2018-01-24T07:02:06.151Z,9.68
2018-01-24T07:02:40.048Z,9.52
2018-01-24T07:03:13.951Z,8.90
2018-01-24T07:03:47.795Z,9.77
2018-01-24T07:04:22.585Z,9.88
2018-01-24T07:04:56.442Z,8.35
2018-01-24T07:05:30.353Z,9.43
2018-01-24T07:06:04.393Z,10.05
2018-01-24T07:06:38.328Z,9.68
2018-01-24T07:07:12.599Z,10.20
2018-01-24T07:07:46.486Z,8.40
2018-01-24T07:08:20.338Z,8.60
2018-01-24T07:08:54.553Z,9.48
2018-01-24T07:09:28.411Z,9.27
2018-01-24T07:10:02.298Z,8.35
2018-01-24T07:10:36.559Z,8.45
2018-01-24T07:11:10.476Z,8.82
2018-01-24T07:11:44.801Z,8.25
2018-01-24T07:12:24.799Z,8.65
2018-01-24T07:13:04.859Z,9.70
2018-01-24T07:13:44.950Z,8.88
2018-01-24T07:14:25.041Z,7.65
2018-01-24T07:14:58.942Z,7.62
2018-01-24T07:15:33.017Z,8.60
2018-01-24T07:16:06.888Z,7.43
2018-01-24T07:16:40.965Z,7.97
2018-01-24T07:17:14.920Z,8.30
2018-01-24T07:17:49.075Z,8.98
2018-01-24T07:18:23.265Z,8.90
2018-01-24T07:18:57.121Z,8.48
2018-01-24T07:19:31.095Z,8.07
2018-01-24T07:20:06.023Z,8.20
2018-01-24T07:20:39.868Z,7.60
2018-01-24T07:21:13.757Z,8.25
2018-01-24T07:21:47.676Z,8.60
2018-01-24T07:22:25.357Z,7.82
2018-01-24T07:23:02.594Z,8.43
2018-01-24T07:23:36.503Z,7.60
2018-01-24T07:24:10.517Z,8.45
2018-01-24T07:24:44.453Z,8.27
2018-01-24T07:25:18.305Z,7.85
2018-01-24T07:25:52.355Z,7.93
2018-01-24T07:26:26.244Z,8.27
2018-01-24T07:27:00.163Z,8.73
2018-01-24T07:27:34.150Z,7.85
2018-01-24T07:28:08.013Z,8.10
2018-01-24T07:28:41.872Z,7.70